TimeEST,TemperatureF,Dew PointF,Humidity,Sea Level PressureIn,VisibilityMPH,Wind Direction,Wind SpeedMPH,Gust SpeedMPH,PrecipitationIn,Events,Conditions,WindDirDegrees,DateUTC
12:56 AM,33.1,25.0,72,29.82,10.0,WSW,3.5,-,N/A,,Clear,250,2012-02-24 05:56:00
1:56 AM,30.0,24.1,79,29.82,10.0,Calm,Calm,-,N/A,,Clear,0,2012-02-24 06:56:00
2:56 AM,30.9,25.0,79,29.77,10.0,Calm,Calm,-,N/A,,Clear,0,2012-02-24 07:56:00
3:56 AM,30.9,26.1,82,29.82,10.0,SSW,4.6,-,N/A,,Overcast,210,2012-02-24 08:56:00
4:56 AM,32.0,27.0,82,29.81,10.0,Calm,Calm,-,N/A,,Overcast,0,2012-02-24 09:56:00
5:56 AM,33.1,27.0,78,29.79,10.0,Calm,Calm,-,N/A,,Overcast,0,2012-02-24 10:56:00
6:56 AM,33.1,28.0,82,29.79,10.0,Calm,Calm,-,N/A,,Overcast,0,2012-02-24 11:56:00
7:56 AM,35.1,28.0,76,29.82,10.0,ENE,3.5,-,0.00,,Overcast,70,2012-02-24 12:56:00
8:56 AM,37.0,27.0,67,29.81,10.0,ENE,4.6,-,N/A,,Overcast,60,2012-02-24 13:56:00
9:56 AM,36.0,27.0,70,29.80,8.0,SE,6.9,-,0.00,Snow,Light Snow,130,2012-02-24 14:56:00
10:03 AM,35.6,28.4,75,29.74,4.0,SSE,9.2,-,0.00,Snow,Light Snow,150,2012-02-24 15:03:00
10:56 AM,35.1,32.0,89,29.78,10.0,Calm,Calm,-,0.00,,Overcast,0,2012-02-24 15:56:00
11:19 AM,35.6,32.0,87,29.72,10.0,Calm,Calm,-,N/A,,Overcast,0,2012-02-24 16:19:00
11:56 AM,36.0,33.1,89,29.73,7.0,East,3.5,-,N/A,,Overcast,90,2012-02-24 16:56:00
12:56 PM,37.0,34.0,89,29.69,10.0,East,6.9,-,N/A,,Overcast,100,2012-02-24 17:56:00
1:41 PM,37.4,33.8,87,29.63,10.0,East,10.4,-,N/A,,Overcast,90,2012-02-24 18:41:00
1:56 PM,37.9,34.0,86,29.66,5.0,East,11.5,-,0.00,Rain,Light Rain,90,2012-02-24 18:56:00
2:56 PM,37.0,35.1,93,29.64,7.0,East,10.4,-,0.01,Rain,Light Rain,80,2012-02-24 19:56:00
3:08 PM,37.4,35.6,93,29.58,4.0,ENE,6.9,-,0.00,,Overcast,70,2012-02-24 20:08:00
3:13 PM,37.4,35.6,93,29.59,2.0,East,6.9,-,0.00,Rain,Light Rain,80,2012-02-24 20:13:00
3:56 PM,37.0,36.0,96,29.62,2.0,ENE,3.5,-,0.13,Rain,Rain,70,2012-02-24 20:56:00
4:12 PM,37.4,37.4,100,29.56,1.5,East,5.8,-,N/A,Rain,Rain,80,2012-02-24 21:12:00
4:56 PM,37.9,37.0,97,29.58,1.8,ENE,4.6,-,0.02,Rain,Rain,60,2012-02-24 21:56:00
5:23 PM,37.4,37.4,100,29.53,2.5,ENE,6.9,-,0.01,Rain,Rain,70,2012-02-24 22:23:00
5:56 PM,37.9,37.9,100,29.54,2.0,East,9.2,-,0.02,Rain,Rain,90,2012-02-24 22:56:00
6:07 PM,37.4,37.4,100,29.46,2.5,East,10.4,-,0.00,Rain,Rain,90,2012-02-24 23:07:00
6:30 PM,39.2,37.4,93,29.46,3.0,East,9.2,-,0.00,Rain,Rain,100,2012-02-24 23:30:00
6:44 PM,39.2,39.2,100,29.44,2.5,East,10.4,-,0.01,Rain,Rain,100,2012-02-24 23:44:00
6:56 PM,39.9,39.0,97,29.48,3.0,East,10.4,-,0.02,Rain,Rain,100,2012-02-24 23:56:00
7:04 PM,39.2,39.2,100,29.43,3.0,ESE,12.7,-,0.02,Rain,Rain,110,2012-02-25 00:04:00
7:56 PM,39.9,39.0,97,29.39,8.0,East,12.7,-,0.11,Rain,Rain,90,2012-02-25 00:56:00
8:56 PM,39.9,39.9,100,29.34,5.0,East,5.8,-,0.19,Rain,Rain,80,2012-02-25 01:56:00
9:56 PM,39.9,39.9,100,29.32,7.0,WNW,15.0,25.3,0.13,Rain,Rain,290,2012-02-25 02:56:00
10:11 PM,39.2,39.2,100,29.26,6.0,WNW,10.4,-,0.03,Rain,Light Rain,300,2012-02-25 03:11:00
10:26 PM,39.2,39.2,100,29.23,5.0,NNW,10.4,-,0.08,Rain,Light Rain,330,2012-02-25 03:26:00
10:37 PM,39.2,39.2,100,29.21,7.0,North,3.5,-,0.08,Rain,Light Rain,10,2012-02-25 03:37:00
10:56 PM,39.0,37.9,96,29.25,8.0,WNW,5.8,-,0.10,Rain,Light Rain,300,2012-02-25 03:56:00
11:07 PM,39.2,37.4,93,29.25,9.0,WSW,8.1,-,0.00,Rain,Light Rain,250,2012-02-25 04:07:00
11:56 PM,37.9,37.0,97,29.26,10.0,WNW,11.5,-,0.01,,Overcast,300,2012-02-25 04:56:00